createdAt,value
2018-04-14T00:00:28.454Z,100477.70
2018-04-14T00:02:54.187Z,100487.28
2018-04-14T00:05:19.730Z,100485.05
2018-04-14T00:07:45.477Z,100478.03
2018-04-14T00:10:11.017Z,100481.36
2018-04-14T00:12:36.799Z,100483.79
2018-04-14T00:15:02.344Z,100481.68
2018-04-14T00:17:28.029Z,100482.81
2018-04-14T00:19:53.573Z,100487.94
2018-04-14T00:22:19.371Z,100496.69
2018-04-14T00:24:45.015Z,100493.69
2018-04-14T00:27:10.758Z,100496.03
2018-04-14T00:29:36.300Z,100498.43
2018-04-14T00:32:02.026Z,100503.84
2018-04-14T00:34:27.602Z,100504.52
2018-04-14T00:36:53.477Z,100502.77
2018-04-14T00:39:19.066Z,100506.89
2018-04-14T00:41:44.832Z,100507.34
2018-04-14T00:44:10.381Z,100506.06
2018-04-14T00:46:36.130Z,100505.12
2018-04-14T00:49:01.637Z,100503.33
2018-04-14T00:51:27.364Z,100510.84
2018-04-14T00:53:52.909Z,100510.52
2018-04-14T00:56:18.617Z,100512.74
2018-04-14T00:58:44.283Z,100510.31
2018-04-14T01:01:10.044Z,100508.20
2018-04-14T01:03:35.594Z,100509.82
2018-04-14T01:06:01.347Z,100515.59
2018-04-14T01:08:26.921Z,100515.56
2018-04-14T01:10:52.655Z,100507.42
2018-04-14T01:13:18.197Z,100519.73
2018-04-14T01:15:43.729Z,100513.66
2018-04-14T01:18:09.524Z,100504.36
2018-04-14T01:20:35.082Z,100514.90
2018-04-14T01:23:00.787Z,100505.03
2018-04-14T01:25:26.340Z,100511.02
2018-04-14T01:27:52.225Z,100509.22
2018-04-14T01:30:17.792Z,100518.06
2018-04-14T01:32:43.652Z,100511.62
2018-04-14T01:35:09.199Z,100519.75
2018-04-14T01:37:34.930Z,100524.81
2018-04-14T01:40:00.476Z,100527.26
2018-04-14T01:42:26.305Z,100522.19
2018-04-14T01:44:51.852Z,100527.44
2018-04-14T01:47:17.549Z,100526.70
2018-04-14T01:49:43.089Z,100535.58
2018-04-14T01:52:08.641Z,100525.16
2018-04-14T01:54:34.324Z,100529.83
2018-04-14T01:56:59.958Z,100531.97
2018-04-14T01:59:25.673Z,100532.09
2018-04-14T02:01:51.215Z,100531.84
2018-04-14T02:04:16.941Z,100536.60
2018-04-14T02:06:42.472Z,100538.78
2018-04-14T02:09:08.190Z,100541.77
2018-04-14T02:11:33.753Z,100547.64
2018-04-14T02:13:59.702Z,100550.53
2018-04-14T02:16:25.254Z,100548.67
2018-04-14T02:18:51.045Z,100535.95
2018-04-14T02:21:16.594Z,100542.68
2018-04-14T02:23:42.160Z,100531.94
2018-04-14T02:26:07.934Z,100535.69
2018-04-14T02:28:33.469Z,100539.89
2018-04-14T02:30:59.332Z,100535.38
2018-04-14T02:33:24.917Z,100536.45
2018-04-14T02:35:50.634Z,100527.01
2018-04-14T02:38:16.229Z,100540.28
2018-04-14T02:40:41.915Z,100538.56
2018-04-14T02:43:07.474Z,100539.56
2018-04-14T02:45:33.252Z,100537.07
2018-04-14T02:47:58.795Z,100540.15
2018-04-14T02:50:24.581Z,100540.16
2018-04-14T02:52:50.130Z,100540.00
2018-04-14T02:55:15.935Z,100544.73
2018-04-14T02:57:41.495Z,100545.05
2018-04-14T03:00:07.246Z,100541.64
2018-04-14T03:02:32.807Z,100538.13
2018-04-14T03:04:58.649Z,100544.05
2018-04-14T03:07:24.201Z,100549.78
2018-04-14T03:09:49.980Z,100543.98
2018-04-14T03:12:15.534Z,100553.10
2018-04-14T03:14:41.410Z,100552.22
2018-04-14T03:17:06.967Z,100553.70
2018-04-14T03:19:32.667Z,100556.52
2018-04-14T03:21:58.226Z,100558.92
2018-04-14T03:24:24.031Z,100555.01
2018-04-14T03:26:49.623Z,100564.58
2018-04-14T03:29:15.373Z,100564.38
2018-04-14T03:31:40.957Z,100562.87
2018-04-14T03:34:06.829Z,100567.62
2018-04-14T03:36:32.417Z,100570.64
2018-04-14T03:38:58.127Z,100568.36
2018-04-14T03:41:23.708Z,100570.19
2018-04-14T03:43:50.778Z,100574.23
2018-04-14T03:46:16.342Z,100570.72
2018-04-14T03:48:42.130Z,100584.48
2018-04-14T03:51:07.807Z,100580.27
2018-04-14T03:53:34.034Z,100582.59
2018-04-14T03:55:59.653Z,100590.71
2018-04-14T03:58:25.692Z,100591.89
2018-04-14T04:00:51.334Z,100590.88
2018-04-14T04:03:17.307Z,100589.06
2018-04-14T04:05:42.911Z,100595.09
2018-04-14T04:08:09.432Z,100606.23
2018-04-14T04:10:35.012Z,100609.45
2018-04-14T04:13:00.577Z,100602.50
2018-04-14T04:15:26.363Z,100608.44
2018-04-14T04:17:51.907Z,100611.27
2018-04-14T04:20:57.459Z,100623.42
2018-04-14T04:24:01.222Z,100612.77
2018-04-14T04:26:26.765Z,100617.70
2018-04-14T04:28:52.531Z,100626.41
2018-04-14T04:31:18.132Z,100620.22
2018-04-14T04:33:44.329Z,100624.52
2018-04-14T04:36:10.032Z,100628.81
2018-04-14T04:41:07.427Z,100630.73
2018-04-14T04:43:33.244Z,100634.94
2018-04-14T04:45:58.804Z,100643.36
2018-04-14T04:48:25.405Z,100648.66
2018-04-14T04:50:50.979Z,100652.39
2018-04-14T04:53:17.494Z,100655.88
2018-04-14T04:55:43.034Z,100666.54
2018-04-14T04:58:08.681Z,100663.52
2018-04-14T05:00:35.101Z,100661.70
2018-04-14T05:03:00.696Z,100662.20
2018-04-14T05:05:26.547Z,100675.42
2018-04-14T05:07:52.105Z,100675.44
2018-04-14T05:10:18.246Z,100677.17
2018-04-14T05:12:43.870Z,100680.66
2018-04-14T05:15:10.020Z,100689.28
2018-04-14T05:17:35.596Z,100687.08
2018-04-14T05:20:01.298Z,100683.87
2018-04-14T05:22:26.852Z,100687.69
2018-04-14T05:24:52.753Z,100688.77
2018-04-14T05:27:18.351Z,100694.39
2018-04-14T05:29:44.517Z,100693.62
2018-04-14T05:32:10.141Z,100702.42
2018-04-14T05:34:35.889Z,100702.73
2018-04-14T05:37:01.543Z,100707.73
2018-04-14T05:39:27.071Z,100704.05
2018-04-14T05:41:53.345Z,100705.64
2018-04-14T05:44:18.928Z,100696.62
2018-04-14T05:46:45.068Z,100706.45
2018-04-14T05:49:10.671Z,100708.95
2018-04-14T05:51:36.845Z,100710.16
2018-04-14T05:54:02.427Z,100707.42
2018-04-14T05:56:28.393Z,100714.23
2018-04-14T05:58:53.970Z,100709.13
2018-04-14T06:01:19.939Z,100717.14
2018-04-14T06:03:45.527Z,100715.52
2018-04-14T06:06:11.642Z,100716.72
2018-04-14T06:08:37.192Z,100732.36
2018-04-14T06:11:02.954Z,100724.30
2018-04-14T06:13:28.484Z,100722.88
2018-04-14T06:15:54.199Z,100729.92
2018-04-14T06:18:19.762Z,100737.00
2018-04-14T06:20:45.508Z,100735.91
2018-04-14T06:23:11.111Z,100746.02
2018-04-14T06:25:37.032Z,100741.80
2018-04-14T06:28:02.593Z,100755.57
2018-04-14T06:30:28.373Z,100748.55
2018-04-14T06:32:53.921Z,100757.94
2018-04-14T06:35:19.720Z,100756.50
2018-04-14T06:37:45.279Z,100758.33
2018-04-14T06:40:10.969Z,100755.43
2018-04-14T06:42:36.514Z,100758.64
2018-04-14T06:45:03.000Z,100763.03
2018-04-14T06:47:28.545Z,100764.08
2018-04-14T06:49:54.142Z,100770.27
2018-04-14T06:52:20.065Z,100770.93
2018-04-14T06:54:45.603Z,100780.22
2018-04-14T06:57:11.432Z,100782.06
2018-04-14T06:59:36.977Z,100790.28
2018-04-14T07:02:02.736Z,100791.87
2018-04-14T07:04:28.341Z,100780.52
2018-04-14T07:06:54.199Z,100792.40
2018-04-14T07:09:19.769Z,100787.44
2018-04-14T07:11:45.474Z,100790.02
2018-04-14T07:14:11.046Z,100791.45
2018-04-14T07:16:36.849Z,100792.92
2018-04-14T07:19:02.387Z,100799.34
2018-04-14T07:21:28.151Z,100802.52
2018-04-14T07:23:53.709Z,100799.63
2018-04-14T07:26:19.507Z,100804.95
2018-04-14T07:28:45.117Z,100808.60
2018-04-14T07:31:10.964Z,100805.70
2018-04-14T07:33:36.780Z,100809.22
2018-04-14T07:36:02.366Z,100812.91
2018-04-14T07:38:28.148Z,100809.70
2018-04-14T07:40:53.702Z,100809.14
2018-04-14T07:43:19.418Z,100807.22
2018-04-14T07:45:44.976Z,100807.97
2018-04-14T07:48:10.839Z,100816.08
2018-04-14T07:50:36.388Z,100806.59
2018-04-14T07:53:02.105Z,100811.48
2018-04-14T07:55:27.646Z,100811.48
2018-04-14T07:57:53.371Z,100810.39
2018-04-14T08:00:18.947Z,100815.08
2018-04-14T08:02:44.703Z,100817.89
2018-04-14T08:05:10.260Z,100810.75
2018-04-14T08:07:36.022Z,100809.10
2018-04-14T08:10:01.669Z,100813.79
2018-04-14T08:12:27.434Z,100815.30
2018-04-14T08:14:53.783Z,100812.91
2018-04-14T08:17:19.337Z,100813.17
2018-04-14T08:19:45.109Z,100817.37
2018-04-14T08:22:10.681Z,100815.54
2018-04-14T08:24:36.527Z,100811.60
2018-04-14T08:27:02.140Z,100811.64
2018-04-14T08:29:27.925Z,100800.92
2018-04-14T08:31:53.497Z,100809.06
2018-04-14T08:34:19.368Z,100810.89
2018-04-14T08:36:44.939Z,100812.58
2018-04-14T08:39:10.632Z,100804.95
2018-04-14T08:41:36.173Z,100809.86
2018-04-14T08:44:01.987Z,100810.58
2018-04-14T08:46:27.557Z,100808.69
2018-04-14T08:48:53.243Z,100804.91
2018-04-14T08:51:18.784Z,100799.42
2018-04-14T08:53:44.500Z,100806.59
2018-04-14T08:56:10.034Z,100805.79
2018-04-14T08:58:35.575Z,100810.10
2018-04-14T09:01:01.269Z,100806.80
2018-04-14T09:03:26.841Z,100810.36
2018-04-14T09:05:52.626Z,100805.80
2018-04-14T09:08:18.280Z,100802.28
2018-04-14T09:10:44.069Z,100802.73
2018-04-14T09:13:09.669Z,100799.81
2018-04-14T09:15:35.439Z,100802.35
2018-04-14T09:18:02.059Z,100804.27
2018-04-14T09:20:29.561Z,100795.19
2018-04-14T09:23:00.147Z,100799.59
2018-04-14T09:25:25.921Z,100794.20
2018-04-14T09:27:52.707Z,100794.22
2018-04-14T09:30:18.458Z,100790.50
2018-04-14T09:32:44.021Z,100790.77
2018-04-14T09:35:09.702Z,100782.02
2018-04-14T09:37:35.265Z,100784.07
2018-04-14T09:40:00.963Z,100779.72
2018-04-14T09:42:26.514Z,100786.78
2018-04-14T09:44:52.373Z,100778.19
2018-04-14T09:47:17.930Z,100771.55
2018-04-14T09:49:43.551Z,100772.78
2018-04-14T09:52:09.241Z,100779.87
2018-04-14T09:54:34.826Z,100776.77
2018-04-14T09:57:00.515Z,100776.48
2018-04-14T09:59:26.222Z,100773.05
2018-04-14T10:01:51.964Z,100768.23
2018-04-14T10:04:17.668Z,100770.27
2018-04-14T10:10:12.152Z,100761.61
2018-04-14T10:12:37.903Z,100759.19
2018-04-14T10:15:03.450Z,100760.52
2018-04-14T10:17:29.167Z,100760.80
2018-04-14T10:19:54.712Z,100761.83
2018-04-14T10:22:20.426Z,100759.06
2018-04-14T10:24:46.065Z,100759.06
2018-04-14T10:27:12.020Z,100753.88
2018-04-14T10:29:37.619Z,100758.28
2018-04-14T10:32:03.372Z,100754.58
2018-04-14T10:34:28.883Z,100746.84
2018-04-14T10:36:54.586Z,100750.76
2018-04-14T10:39:20.195Z,100746.97
2018-04-14T10:41:45.898Z,100743.41
2018-04-14T10:44:11.445Z,100745.05
2018-04-14T10:46:37.148Z,100746.67
2018-04-14T10:49:02.687Z,100735.66
2018-04-14T10:51:28.740Z,100736.81
2018-04-14T10:53:54.272Z,100744.45
2018-04-14T10:56:20.377Z,100743.61
2018-04-14T10:58:45.994Z,100737.11
2018-04-14T11:01:11.854Z,100737.17
2018-04-14T11:03:37.387Z,100725.37
2018-04-14T11:06:03.084Z,100722.42
2018-04-14T11:08:28.724Z,100725.72
2018-04-14T11:10:54.377Z,100719.43
2018-04-14T11:13:19.927Z,100719.24
2018-04-14T11:15:45.667Z,100725.28
2018-04-14T11:18:11.237Z,100720.32
2018-04-14T11:20:37.087Z,100718.94
2018-04-14T11:23:02.636Z,100724.30
2018-04-14T11:25:28.376Z,100719.17
2018-04-14T11:27:54.169Z,100723.27
2018-04-14T11:30:19.967Z,100728.31
2018-04-14T11:32:45.542Z,100721.87
2018-04-14T11:35:11.498Z,100721.11
2018-04-14T11:37:37.127Z,100718.06
2018-04-14T11:40:02.675Z,100709.77
2018-04-14T11:42:28.378Z,100715.23
2018-04-14T11:44:53.942Z,100706.44
2018-04-14T11:47:19.708Z,100706.77
2018-04-14T11:49:45.241Z,100704.95
2018-04-14T11:52:10.929Z,100721.66
2018-04-14T11:54:36.482Z,100714.04
2018-04-14T11:57:02.177Z,100716.59
2018-04-14T11:59:27.742Z,100725.19
2018-04-14T12:01:53.478Z,100725.57
2018-04-14T12:04:19.030Z,100726.41
2018-04-14T12:06:44.732Z,100723.20
2018-04-14T12:09:10.292Z,100729.41
2018-04-14T12:11:36.091Z,100723.34
2018-04-14T12:14:01.671Z,100723.47
2018-04-14T12:16:27.451Z,100729.86
2018-04-14T12:18:53.017Z,100732.47
2018-04-14T12:21:18.568Z,100734.25
2018-04-14T12:23:44.224Z,100736.44
2018-04-14T12:26:10.060Z,100742.37
2018-04-14T12:28:35.642Z,100737.17
2018-04-14T12:31:01.208Z,100752.27
2018-04-14T12:33:26.896Z,100757.38
2018-04-14T12:35:52.471Z,100752.84
2018-04-14T12:38:18.150Z,100747.19
2018-04-14T12:40:43.910Z,100736.91
2018-04-14T12:43:09.453Z,100731.23
2018-04-14T12:45:35.095Z,100727.25
2018-04-14T12:48:00.785Z,100728.16
2018-04-14T12:50:26.415Z,100731.78
2018-04-14T12:52:52.284Z,100741.37
2018-04-14T12:55:17.850Z,100732.88
2018-04-14T12:57:43.542Z,100726.59
2018-04-14T13:00:09.088Z,100723.03
2018-04-14T13:02:34.765Z,100709.38
2018-04-14T13:05:00.296Z,100701.37
2018-04-14T13:07:26.118Z,100706.88
